TX89 weather

Public forecast

Using degrees Fahrenheit for public forecast. Weather courtesy of forecast.io.

Closest aviation weather report (METAR) to Memorial Hermann Sugar Land Hospital Heliport

Closest report is Sugar Land Regional Airport, 3.8 nm (7.1 km) NNE. Retrieved 2020/08/11 00:53 UTC (19 minutes ago):

KSGR 110053Z 16009KT 10SM CLR 31/24 A2997 RMK AO2 SLP149 T03060244

Closest aviation forecast (TAF) to Memorial Hermann Sugar Land Hospital Heliport

Closest forecast is Sugar Land Regional Airport, 3.8 nm (7.1 km) NNE. Retrieved 2020-08-11 00:36 UTC (36 minutes ago):

TAF KSGR 102335Z 1100/1124 16010KT P6SM FEW035 FM110200 16004KT P6SM SKC FM111500 19009KT P6SM FEW035 FM111900 16010KT P6SM FEW040